createdAt,value
2022-12-25T00:00:21.002Z,91.58
2022-12-25T00:03:23.143Z,92.51
2022-12-25T00:06:25.087Z,93.62
2022-12-25T00:09:27.140Z,92.91
2022-12-25T00:12:28.838Z,92.76
2022-12-25T00:15:30.412Z,91.97
2022-12-25T00:18:32.070Z,91.79
2022-12-25T00:21:33.689Z,92.66
2022-12-25T00:24:35.360Z,92.83
2022-12-25T00:27:39.886Z,93.03
2022-12-25T00:30:41.483Z,93.13
2022-12-25T00:33:45.544Z,93.91
2022-12-25T00:36:50.729Z,93.84
2022-12-25T00:39:52.301Z,94.32
2022-12-25T00:42:53.885Z,93.88
2022-12-25T00:45:57.814Z,93.84
2022-12-25T00:49:00.529Z,92.72
2022-12-25T00:52:02.505Z,93.15
2022-12-25T00:55:04.648Z,93.47
2022-12-25T00:58:06.364Z,94.49
2022-12-25T01:01:11.026Z,94.13
2022-12-25T01:04:13.150Z,94.49
2022-12-25T01:07:16.965Z,98.17
2022-12-25T01:10:24.891Z,100.00
2022-12-25T01:13:28.173Z,100.00
2022-12-25T01:16:29.879Z,100.00
2022-12-25T01:19:31.612Z,100.00
2022-12-25T01:22:33.196Z,100.00
2022-12-25T01:25:34.913Z,100.00
2022-12-25T01:28:37.555Z,100.00
2022-12-25T01:31:39.233Z,100.00
2022-12-25T01:34:40.877Z,100.00
2022-12-25T01:37:42.523Z,100.00
2022-12-25T01:40:44.288Z,100.00
2022-12-25T01:43:59.885Z,100.00
2022-12-25T01:47:02.710Z,100.00
2022-12-25T01:50:04.835Z,100.00
2022-12-25T01:53:07.484Z,100.00
2022-12-25T01:56:09.681Z,100.00
2022-12-25T01:59:16.342Z,100.00
2022-12-25T02:02:18.226Z,100.00
2022-12-25T02:05:26.991Z,100.00
2022-12-25T02:08:28.608Z,100.00
2022-12-25T02:11:48.853Z,100.00
2022-12-25T02:14:52.547Z,100.00
2022-12-25T02:17:54.090Z,100.00
2022-12-25T02:21:16.996Z,100.00
2022-12-25T02:24:53.551Z,99.83
2022-12-25T02:28:06.455Z,99.70
2022-12-25T02:31:13.359Z,99.70
2022-12-25T02:34:23.651Z,99.00
2022-12-25T02:37:35.946Z,99.15
2022-12-25T02:40:50.058Z,98.51
2022-12-25T02:44:10.466Z,98.62
2022-12-25T02:47:31.586Z,97.76
2022-12-25T02:50:52.111Z,97.97
2022-12-25T02:54:15.465Z,98.50
2022-12-25T02:57:38.935Z,98.99
2022-12-25T03:01:03.483Z,97.74
2022-12-25T03:04:30.036Z,97.17
2022-12-25T03:07:37.691Z,97.31
2022-12-25T03:11:04.048Z,97.24
2022-12-25T03:14:26.823Z,96.18
2022-12-25T03:17:28.446Z,96.64
2022-12-25T03:20:49.865Z,96.00
2022-12-25T03:24:22.334Z,95.83
2022-12-25T03:27:25.839Z,95.46
2022-12-25T03:31:00.230Z,95.44
2022-12-25T03:34:28.627Z,94.57
2022-12-25T03:38:12.495Z,94.46
2022-12-25T03:42:03.173Z,94.75
2022-12-25T03:46:00.147Z,94.93
2022-12-25T03:49:40.169Z,95.19
2022-12-25T03:53:02.874Z,95.01
2022-12-25T03:56:24.093Z,94.62
2022-12-25T03:59:44.298Z,93.86
2022-12-25T04:03:04.787Z,93.61
2022-12-25T04:06:25.018Z,93.22
2022-12-25T04:09:45.763Z,93.67
2022-12-25T04:13:06.056Z,92.79
2022-12-25T04:16:26.461Z,93.03
2022-12-25T04:19:57.371Z,93.40
2022-12-25T04:23:18.047Z,93.70
2022-12-25T04:26:38.027Z,93.18
2022-12-25T04:29:58.184Z,93.37
2022-12-25T04:33:18.219Z,94.35
2022-12-25T04:36:19.867Z,94.26
2022-12-25T04:39:21.463Z,96.53
2022-12-25T04:42:23.126Z,97.36
2022-12-25T04:45:24.737Z,99.65
2022-12-25T04:48:28.651Z,100.00
2022-12-25T04:51:30.321Z,100.00
2022-12-25T04:54:32.075Z,100.00
2022-12-25T04:57:33.974Z,100.00
2022-12-25T05:00:36.010Z,100.00
2022-12-25T05:03:38.195Z,100.00
2022-12-25T05:06:40.390Z,100.00
2022-12-25T05:09:42.045Z,100.00
2022-12-25T05:12:44.004Z,100.00
2022-12-25T05:15:45.686Z,100.00
2022-12-25T05:18:51.958Z,100.00
2022-12-25T05:21:54.382Z,100.00
2022-12-25T05:24:56.012Z,100.00
2022-12-25T05:27:57.673Z,100.00
2022-12-25T05:30:59.429Z,100.00
2022-12-25T05:34:01.171Z,100.00
2022-12-25T05:37:04.002Z,100.00
2022-12-25T05:40:06.463Z,100.00
2022-12-25T05:43:08.287Z,100.00
2022-12-25T05:46:11.526Z,100.00
2022-12-25T05:49:13.212Z,100.00
2022-12-25T05:52:14.786Z,100.00
2022-12-25T05:55:16.503Z,100.00
2022-12-25T05:58:18.113Z,100.00
2022-12-25T06:01:23.810Z,100.00
2022-12-25T06:04:26.797Z,100.00
2022-12-25T06:07:28.427Z,100.00
2022-12-25T06:10:30.148Z,100.00
2022-12-25T06:13:32.743Z,100.00
2022-12-25T06:16:38.248Z,100.00
2022-12-25T06:19:42.561Z,100.00
2022-12-25T06:22:44.337Z,100.00
2022-12-25T06:25:46.101Z,100.00
2022-12-25T06:28:48.123Z,100.00
2022-12-25T06:31:49.833Z,100.00
2022-12-25T06:34:51.505Z,100.00
2022-12-25T06:37:53.327Z,100.00
2022-12-25T06:40:54.918Z,100.00
2022-12-25T06:43:58.808Z,100.00
2022-12-25T06:47:00.407Z,100.00
2022-12-25T06:50:02.316Z,100.00
2022-12-25T06:53:03.943Z,100.00
2022-12-25T06:56:07.583Z,100.00
2022-12-25T06:59:10.371Z,100.00
2022-12-25T07:02:19.405Z,100.00
2022-12-25T07:05:21.103Z,100.00
2022-12-25T07:08:22.731Z,100.00
2022-12-25T07:11:25.037Z,100.00
2022-12-25T07:14:26.613Z,100.00
2022-12-25T07:17:28.302Z,100.00
2022-12-25T07:20:30.123Z,100.00
2022-12-25T07:23:31.685Z,100.00
2022-12-25T07:26:33.263Z,100.00
2022-12-25T07:29:35.288Z,100.00
2022-12-25T07:32:36.912Z,100.00
2022-12-25T07:35:38.808Z,100.00
2022-12-25T07:38:42.016Z,100.00
2022-12-25T07:41:44.381Z,100.00
2022-12-25T07:44:49.238Z,100.00
2022-12-25T07:47:53.784Z,100.00
2022-12-25T07:50:57.714Z,100.00
2022-12-25T07:53:59.349Z,100.00
2022-12-25T07:57:00.908Z,100.00
2022-12-25T08:00:06.600Z,100.00
2022-12-25T08:03:15.914Z,100.00
2022-12-25T08:06:18.869Z,100.00
2022-12-25T08:09:20.488Z,100.00
2022-12-25T08:12:22.199Z,100.00
2022-12-25T08:15:23.822Z,100.00
2022-12-25T08:18:29.934Z,100.00
2022-12-25T08:21:31.906Z,100.00
2022-12-25T08:24:33.537Z,100.00
2022-12-25T08:27:35.410Z,100.00
2022-12-25T08:30:40.972Z,100.00
2022-12-25T08:33:43.209Z,100.00
2022-12-25T08:36:44.864Z,100.00
2022-12-25T08:39:46.457Z,100.00
2022-12-25T08:42:47.991Z,100.00
2022-12-25T08:45:49.607Z,100.00
2022-12-25T08:48:51.357Z,100.00
2022-12-25T08:51:53.134Z,100.00
2022-12-25T08:54:54.890Z,100.00
2022-12-25T08:57:56.616Z,100.00
2022-12-25T09:00:58.602Z,100.00
2022-12-25T09:04:00.335Z,100.00
2022-12-25T09:07:02.696Z,100.00
2022-12-25T09:10:04.677Z,100.00
2022-12-25T09:13:06.497Z,100.00
2022-12-25T09:16:10.435Z,100.00
2022-12-25T09:19:12.095Z,100.00
2022-12-25T09:22:13.673Z,100.00
2022-12-25T09:25:15.411Z,100.00
2022-12-25T09:28:17.032Z,100.00
2022-12-25T09:31:19.137Z,100.00
2022-12-25T09:34:20.797Z,100.00
2022-12-25T09:37:22.403Z,100.00
2022-12-25T09:40:28.567Z,98.37
2022-12-25T09:43:33.812Z,98.51
2022-12-25T09:46:43.114Z,98.99
2022-12-25T09:50:02.660Z,99.73
2022-12-25T09:53:18.781Z,98.65
2022-12-25T09:56:27.306Z,97.98
2022-12-25T09:59:29.296Z,98.83
2022-12-25T10:02:36.647Z,98.08
2022-12-25T10:05:55.805Z,98.40
2022-12-25T10:09:11.785Z,99.15
2022-12-25T10:12:35.331Z,98.11
2022-12-25T10:16:05.698Z,96.88
2022-12-25T10:19:22.461Z,97.84
2022-12-25T10:22:32.121Z,97.65
2022-12-25T10:25:36.839Z,99.11
2022-12-25T10:28:42.856Z,98.19
2022-12-25T10:31:46.727Z,97.02
2022-12-25T10:34:48.944Z,95.42
2022-12-25T10:38:00.154Z,95.27
2022-12-25T10:41:34.227Z,93.50
2022-12-25T10:44:36.604Z,94.48
2022-12-25T10:47:42.047Z,95.08
2022-12-25T10:50:44.039Z,94.62
2022-12-25T10:53:45.558Z,94.50
2022-12-25T10:56:56.450Z,93.30
2022-12-25T10:59:58.150Z,93.66
2022-12-25T11:03:00.791Z,93.50
2022-12-25T11:06:03.016Z,95.36
2022-12-25T11:09:05.101Z,94.54
2022-12-25T11:12:07.310Z,96.43
2022-12-25T11:15:36.746Z,96.34
2022-12-25T11:18:50.875Z,94.02
2022-12-25T11:21:57.271Z,94.07
2022-12-25T11:25:12.547Z,92.42
2022-12-25T11:28:14.381Z,92.16
2022-12-25T11:31:46.657Z,92.84
2022-12-25T11:34:50.171Z,92.94
2022-12-25T11:37:52.803Z,91.92
2022-12-25T11:41:02.698Z,92.55
2022-12-25T11:44:19.368Z,92.62
2022-12-25T11:47:40.780Z,88.97
2022-12-25T11:50:49.854Z,87.31
2022-12-25T11:53:55.435Z,87.54
2022-12-25T11:56:59.697Z,84.91
2022-12-25T12:00:15.737Z,84.13
2022-12-25T12:03:37.244Z,84.95
2022-12-25T12:06:52.517Z,85.60
2022-12-25T12:10:26.659Z,85.50
2022-12-25T12:13:40.736Z,84.66
2022-12-25T12:16:42.486Z,83.69
2022-12-25T12:19:44.436Z,83.65
2022-12-25T12:22:50.853Z,83.59
2022-12-25T12:25:53.055Z,83.22
2022-12-25T12:28:59.188Z,84.45
2022-12-25T12:32:04.961Z,83.41
2022-12-25T12:35:20.486Z,83.66
2022-12-25T12:38:24.193Z,83.30
2022-12-25T12:41:46.498Z,84.35
2022-12-25T12:44:50.306Z,83.54
2022-12-25T12:47:53.264Z,81.39
2022-12-25T12:51:10.694Z,81.08
2022-12-25T12:54:22.643Z,82.54
2022-12-25T12:57:27.149Z,83.54
2022-12-25T13:00:44.572Z,83.46
2022-12-25T13:04:11.019Z,83.32
2022-12-25T13:07:20.105Z,85.02
2022-12-25T13:10:38.434Z,84.16
2022-12-25T13:13:42.812Z,86.16
2022-12-25T13:16:47.366Z,85.55
2022-12-25T13:19:54.763Z,85.38
2022-12-25T13:22:56.364Z,84.41
2022-12-25T13:26:14.330Z,84.98
2022-12-25T13:29:38.686Z,87.43
2022-12-25T13:32:41.948Z,89.07
2022-12-25T13:35:44.015Z,90.57
2022-12-25T13:38:48.176Z,90.91
2022-12-25T13:42:09.333Z,91.32
2022-12-25T13:45:13.953Z,91.83
2022-12-25T13:48:16.196Z,92.21
2022-12-25T13:51:20.541Z,92.43
2022-12-25T13:54:22.132Z,91.36
2022-12-25T13:57:31.258Z,91.13
2022-12-25T14:00:38.783Z,91.38
2022-12-25T14:03:43.975Z,91.54
2022-12-25T14:06:45.926Z,92.18
2022-12-25T14:09:51.091Z,91.94
2022-12-25T14:12:56.056Z,92.68
2022-12-25T14:15:58.030Z,92.99
2022-12-25T14:19:02.457Z,93.92
2022-12-25T14:22:13.806Z,94.28
2022-12-25T14:25:16.090Z,94.61
2022-12-25T14:28:25.530Z,93.86
2022-12-25T14:31:29.323Z,94.22
2022-12-25T14:34:32.449Z,93.52
2022-12-25T14:37:34.322Z,87.97
2022-12-25T14:40:36.110Z,80.99
2022-12-25T14:43:37.793Z,74.94
2022-12-25T14:46:39.541Z,76.10
2022-12-25T14:49:41.694Z,74.50
2022-12-25T14:52:45.048Z,75.26
2022-12-25T14:55:49.297Z,74.66
2022-12-25T14:58:53.740Z,74.11
2022-12-25T15:01:58.857Z,72.61
2022-12-25T15:05:00.620Z,73.48
2022-12-25T15:08:02.181Z,72.97
2022-12-25T15:11:04.376Z,73.10
2022-12-25T15:14:06.288Z,72.41
2022-12-25T15:17:25.013Z,73.30
2022-12-25T15:20:32.758Z,69.21
2022-12-25T15:23:34.385Z,68.54
2022-12-25T15:26:35.945Z,67.66
2022-12-25T15:30:08.507Z,67.25
2022-12-25T15:32:59.062Z,67.26
2022-12-25T15:36:00.793Z,69.12
2022-12-25T15:39:02.382Z,66.66
2022-12-25T15:42:12.932Z,66.18
2022-12-25T15:45:22.251Z,64.97
2022-12-25T15:48:23.813Z,65.27
2022-12-25T15:51:25.834Z,63.95
2022-12-25T15:54:27.500Z,64.22
2022-12-25T15:57:30.630Z,62.49
2022-12-25T16:00:32.285Z,62.02
2022-12-25T16:03:34.002Z,62.33
2022-12-25T16:06:35.664Z,61.51
2022-12-25T16:09:37.614Z,60.69
2022-12-25T16:12:39.365Z,61.04
2022-12-25T16:15:41.429Z,61.46
2022-12-25T16:18:47.337Z,61.32
2022-12-25T16:21:52.653Z,61.63
2022-12-25T16:25:05.663Z,61.33
2022-12-25T16:28:11.980Z,60.89
2022-12-25T16:31:14.183Z,60.00
2022-12-25T16:34:20.718Z,61.50
2022-12-25T16:37:22.789Z,60.68
2022-12-25T16:40:24.954Z,61.04
2022-12-25T16:43:27.395Z,61.82
2022-12-25T16:46:31.999Z,61.82
2022-12-25T16:49:33.845Z,63.14
2022-12-25T16:52:36.163Z,63.41
2022-12-25T16:55:38.584Z,62.65
2022-12-25T16:58:41.765Z,62.56
2022-12-25T17:01:43.667Z,61.92
2022-12-25T17:04:46.153Z,62.36
2022-12-25T17:07:48.106Z,62.91
2022-12-25T17:10:50.045Z,62.35
2022-12-25T17:13:52.234Z,63.19
2022-12-25T17:16:56.963Z,62.04
2022-12-25T17:19:58.793Z,62.15
2022-12-25T17:23:00.536Z,60.67
2022-12-25T17:26:02.417Z,60.79
2022-12-25T17:29:04.525Z,60.04
2022-12-25T17:32:07.991Z,59.53
2022-12-25T17:35:14.626Z,58.05
2022-12-25T17:38:16.237Z,60.21
2022-12-25T17:41:19.202Z,59.26
2022-12-25T17:44:21.158Z,59.19
2022-12-25T17:47:22.778Z,60.22
2022-12-25T17:50:25.701Z,59.45
2022-12-25T17:53:27.836Z,60.79
2022-12-25T17:56:29.525Z,61.88
2022-12-25T17:59:31.157Z,61.33
2022-12-25T18:02:33.100Z,60.17
2022-12-25T18:05:37.984Z,59.68
2022-12-25T18:08:40.587Z,60.04
2022-12-25T18:11:43.883Z,59.99
2022-12-25T18:14:45.722Z,60.27
2022-12-25T18:17:47.356Z,60.11
2022-12-25T18:20:49.089Z,61.15
2022-12-25T18:23:50.921Z,61.30
2022-12-25T18:26:52.523Z,62.44
2022-12-25T18:29:54.136Z,65.59
2022-12-25T18:32:55.775Z,64.42
2022-12-25T18:35:59.481Z,62.87
2022-12-25T18:39:02.007Z,61.45
2022-12-25T18:42:22.347Z,64.28
2022-12-25T18:45:24.020Z,66.50
2022-12-25T18:48:26.274Z,64.31
2022-12-25T18:51:34.896Z,66.59
2022-12-25T18:54:38.429Z,65.54
2022-12-25T18:57:40.978Z,66.06
2022-12-25T19:00:42.818Z,65.50
2022-12-25T19:03:45.973Z,64.93
2022-12-25T19:06:49.503Z,62.71
2022-12-25T19:09:51.370Z,61.39
2022-12-25T19:12:53.167Z,61.47
2022-12-25T19:15:59.726Z,60.60
2022-12-25T19:19:02.353Z,60.74
2022-12-25T19:22:03.993Z,61.71
2022-12-25T19:25:06.284Z,61.57
2022-12-25T19:28:07.928Z,60.57
2022-12-25T19:31:10.797Z,60.11
2022-12-25T19:34:12.837Z,59.69
2022-12-25T19:37:15.123Z,60.19
2022-12-25T19:40:16.960Z,59.52
2022-12-25T19:43:18.683Z,59.48
2022-12-25T19:46:24.573Z,59.63
2022-12-25T19:49:26.415Z,59.96
2022-12-25T19:52:28.092Z,58.52
2022-12-25T19:55:31.962Z,58.75
2022-12-25T19:58:33.613Z,59.40
2022-12-25T20:01:35.458Z,58.69
2022-12-25T20:04:37.257Z,58.90
2022-12-25T20:07:38.839Z,58.73
2022-12-25T20:10:45.267Z,59.21
2022-12-25T20:13:47.144Z,58.84
2022-12-25T20:16:48.786Z,59.38
2022-12-25T20:19:50.438Z,59.34
2022-12-25T20:22:52.028Z,59.28
2022-12-25T20:25:54.130Z,59.25
2022-12-25T20:28:56.242Z,59.95
2022-12-25T20:31:57.883Z,58.82
2022-12-25T20:34:59.543Z,59.65
2022-12-25T20:38:01.155Z,59.08
2022-12-25T20:44:28.515Z,58.67
2022-12-25T20:47:30.165Z,57.99
2022-12-25T20:50:32.454Z,58.14
2022-12-25T20:53:34.116Z,58.02
2022-12-25T20:56:36.491Z,58.63
2022-12-25T20:59:38.267Z,58.70
2022-12-25T21:02:40.071Z,57.49
2022-12-25T21:05:49.894Z,57.63
2022-12-25T21:08:51.835Z,57.66
2022-12-25T21:11:53.498Z,59.52
2022-12-25T21:14:55.141Z,58.13
2022-12-25T21:17:56.924Z,57.08
2022-12-25T21:20:59.472Z,56.72
2022-12-25T21:24:01.074Z,56.39
2022-12-25T21:27:02.698Z,63.43
2022-12-25T21:30:14.776Z,61.44
2022-12-25T21:33:36.115Z,59.49
2022-12-25T21:36:37.994Z,62.10
2022-12-25T21:39:39.701Z,61.79
2022-12-25T21:42:41.376Z,59.58
2022-12-25T21:45:43.085Z,59.34
2022-12-25T21:48:45.370Z,59.11
2022-12-25T21:52:05.567Z,59.92
2022-12-25T21:55:07.857Z,59.22
2022-12-25T21:58:09.696Z,60.83
2022-12-25T22:01:11.835Z,60.76
2022-12-25T22:04:15.888Z,59.48
2022-12-25T22:07:17.595Z,60.43
2022-12-25T22:10:19.230Z,60.46
2022-12-25T22:13:39.615Z,60.60
2022-12-25T22:16:59.969Z,62.20
2022-12-25T22:20:01.876Z,63.15
2022-12-25T22:23:04.233Z,63.46
2022-12-25T22:26:06.037Z,63.74
2022-12-25T22:29:07.681Z,63.30
2022-12-25T22:32:10.470Z,63.21
2022-12-25T22:35:13.437Z,63.62
2022-12-25T22:38:15.031Z,63.93
2022-12-25T22:41:16.681Z,64.17
2022-12-25T22:44:18.635Z,64.56
2022-12-25T22:47:20.466Z,63.51
2022-12-25T22:50:22.092Z,64.43
2022-12-25T22:53:23.677Z,63.77
2022-12-25T22:56:25.327Z,63.67
2022-12-25T22:59:27.144Z,64.00
2022-12-25T23:02:29.046Z,63.83
2022-12-25T23:05:30.922Z,64.68
2022-12-25T23:08:32.611Z,65.13
2022-12-25T23:11:35.731Z,65.84
2022-12-25T23:14:41.594Z,67.14
2022-12-25T23:18:01.765Z,66.67
2022-12-25T23:21:23.283Z,67.62
2022-12-25T23:24:44.041Z,67.52
2022-12-25T23:27:45.803Z,65.92
2022-12-25T23:30:47.539Z,67.70
2022-12-25T23:33:49.097Z,67.48
2022-12-25T23:36:50.725Z,68.68
2022-12-25T23:39:52.389Z,69.64
2022-12-25T23:42:53.997Z,70.38
2022-12-25T23:45:55.702Z,70.80
2022-12-25T23:48:57.483Z,70.08
2022-12-25T23:51:59.283Z,70.51
2022-12-25T23:55:00.940Z,70.18
2022-12-25T23:58:02.604Z,69.68
